map of LRTZ home
LRTZ - Airport
Location
City:  Tuzla, Constanta, Romania
Near (Alt.):costinesti, Eforie Sud
Name:Tuzle Airfield
ICAO:LRTZ

Details
Type:Airport (Aerodrome, Airfield)
Latitude:4359'07"N (43.985214)
Longitude:2836'24"E (28.606611)
Datum:WGS 1984
Elevation:164 ft (50 m)
Variation:6.08E (WMM2015v2 magnetic declination)
0.12 annual change

Time
Time Zone:UTC+2 (DST+3)
Local Time:

Weather
METAR:LRTZ 041400Z 14004KT 9999 BKN200 14/09 Q1021 BLU BLU
TAF:LRTZ 041100Z 0412/0512 27006KT 9999 BKN200
BECMG 0416/0418 05010KT 4000 BR PROB40
TEMPO 0500/0506 0400 FG VV002

Related Locations
Nearby:
Farthest:CHT: 11194 mi / 18015 km
Waitangi [Tuuta], CIT, NZ

Find:

   beyond  
but within

Other Information
Maps:
NOTAMs:
Links:
Sources:

  
  • flag of Romania
  

Sectional Chart

Flight Planning
at skyvector.com

Satellite Image

Google Maps Satellite view

 

Copyright © 2004-2019 Karl L. Swartz. All rights reserved.
The Great Circle Mapper name and logo are trademarks of the Great Circle Mapper.
All other trademarks mentioned herein belong to their respective owners.
Please see credits for attibutions and further copyright information.

  Follow gcmap on Facebook Follow gcmap on Twitter GCmap on LinkedIn

hCard Microformat

Geo Microformat